createdAt,value
2023-06-27T00:04:05.455Z,18.5
2023-06-27T00:09:11.552Z,18.4
2023-06-27T00:14:17.630Z,18.2
2023-06-27T00:19:23.740Z,18
2023-06-27T00:24:29.838Z,18
2023-06-27T00:29:35.923Z,17.8
2023-06-27T00:34:42.021Z,17.7
2023-06-27T00:39:47.128Z,17.6
2023-06-27T00:44:53.211Z,17.5
2023-06-27T00:49:59.317Z,17.5
2023-06-27T00:55:05.442Z,17.4
2023-06-27T01:00:11.504Z,17.3
2023-06-27T01:05:17.602Z,17.2
2023-06-27T01:10:23.677Z,17.1
2023-06-27T01:15:29.791Z,17
2023-06-27T01:20:35.885Z,16.9
2023-06-27T01:25:41.973Z,16.8
2023-06-27T01:30:48.064Z,16.7
2023-06-27T01:35:54.163Z,16.6
2023-06-27T01:41:00.258Z,16.5
2023-06-27T01:46:05.371Z,16.3
2023-06-27T01:51:11.458Z,16
2023-06-27T01:56:17.590Z,15.8
2023-06-27T02:01:23.663Z,15.7
2023-06-27T02:06:29.756Z,15.6
2023-06-27T02:11:35.866Z,15.5
2023-06-27T02:16:41.945Z,15.5
2023-06-27T02:21:48.031Z,15.5
2023-06-27T02:26:54.132Z,15.4
2023-06-27T02:32:00.221Z,15.4
2023-06-27T02:37:06.313Z,15.4
2023-06-27T02:42:12.422Z,15.3
2023-06-27T02:47:18.499Z,15.3
2023-06-27T02:52:23.612Z,15.2
2023-06-27T02:57:29.710Z,15.3
2023-06-27T03:02:35.793Z,15.5
2023-06-27T03:07:41.892Z,15.6
2023-06-27T03:12:47.985Z,15.7
2023-06-27T03:17:54.076Z,15.7
2023-06-27T03:23:00.171Z,15.8
2023-06-27T03:28:06.256Z,15.9
2023-06-27T03:33:12.377Z,15.9
2023-06-27T03:38:18.453Z,15.9
2023-06-27T03:43:24.601Z,15.9
2023-06-27T03:48:30.659Z,16
2023-06-27T03:53:36.781Z,15.9
2023-06-27T03:58:41.854Z,15.8
2023-06-27T04:03:47.943Z,15.8
2023-06-27T04:08:54.049Z,15.8
2023-06-27T04:14:00.135Z,15.7
2023-06-27T04:19:06.238Z,15.8
2023-06-27T04:24:12.326Z,15.9
2023-06-27T04:29:18.410Z,15.9
2023-06-27T04:34:24.515Z,16
2023-06-27T04:39:30.599Z,16.1
2023-06-27T04:44:36.729Z,16.2
2023-06-27T04:49:42.825Z,16.3
2023-06-27T04:54:48.897Z,16.3
2023-06-27T04:59:54.993Z,16.4
2023-06-27T05:05:00.083Z,16.4
2023-06-27T05:10:06.187Z,16.4
2023-06-27T05:20:18.361Z,16.7
2023-06-27T05:25:24.477Z,16.7
2023-06-27T05:30:30.574Z,16.9
2023-06-27T05:35:36.693Z,17
2023-06-27T05:40:42.755Z,17.1
2023-06-27T05:45:48.842Z,17.2
2023-06-27T05:50:54.952Z,17.3
2023-06-27T05:56:01.026Z,17.4
2023-06-27T06:01:07.216Z,17.5
2023-06-27T06:06:13.225Z,17.6
2023-06-27T06:11:18.353Z,17.6
2023-06-27T06:16:24.480Z,17.7
2023-06-27T06:21:30.529Z,17.8
2023-06-27T06:26:36.614Z,17.8
2023-06-27T06:31:42.706Z,17.9
2023-06-27T06:36:48.935Z,17.9
2023-06-27T06:41:54.908Z,18.1
2023-06-27T06:47:01.000Z,18.2
2023-06-27T06:52:07.095Z,18.3
2023-06-27T06:57:13.305Z,18.4
2023-06-27T07:02:19.307Z,18.5
2023-06-27T07:07:25.376Z,18.7
2023-06-27T07:12:31.473Z,19
2023-06-27T07:17:36.591Z,19.3
2023-06-27T07:22:42.679Z,19.4
2023-06-27T07:27:48.786Z,19.1
2023-06-27T07:32:55.048Z,19.2
2023-06-27T07:38:01.207Z,19.4
2023-06-27T07:43:07.114Z,19.3
2023-06-27T07:48:13.324Z,19.4
2023-06-27T07:53:19.427Z,19.6
2023-06-27T07:58:25.532Z,19.4
2023-06-27T08:03:31.611Z,19.5
2023-06-27T08:08:37.509Z,20.1
2023-06-27T08:13:43.628Z,20.2
2023-06-27T08:18:49.709Z,19.8
2023-06-27T08:23:54.815Z,20
2023-06-27T08:29:00.894Z,20.1
2023-06-27T08:34:07.006Z,19.9
2023-06-27T08:39:13.097Z,19.5
2023-06-27T08:44:19.191Z,19.8
2023-06-27T08:49:25.290Z,20.5
2023-06-27T08:54:31.370Z,20.8
2023-06-27T08:59:37.466Z,20.9
2023-06-27T09:04:43.578Z,21.3
2023-06-27T09:09:49.676Z,21.7
2023-06-27T09:14:55.754Z,21.1
2023-06-27T09:20:01.859Z,20.8
2023-06-27T09:25:07.944Z,20.5
2023-06-27T09:30:13.055Z,20.6
2023-06-27T09:35:19.154Z,21.3
2023-06-27T09:40:25.238Z,23.9
2023-06-27T09:45:31.320Z,23.8
2023-06-27T09:50:37.456Z,25.7
2023-06-27T09:55:43.605Z,24.9
2023-06-27T10:00:49.815Z,24.2
2023-06-27T10:05:55.802Z,23.3
2023-06-27T10:11:02.066Z,25.5
2023-06-27T10:16:08.133Z,24.5
2023-06-27T10:21:14.247Z,22.6
2023-06-27T10:26:20.083Z,22.2
2023-06-27T10:31:26.336Z,24.8
2023-06-27T10:36:31.460Z,26.4
2023-06-27T10:41:37.392Z,27.4
2023-06-27T10:46:43.477Z,25.6
2023-06-27T10:51:49.652Z,27
2023-06-27T10:56:55.857Z,28.8
2023-06-27T11:02:02.002Z,29.4
2023-06-27T11:07:07.033Z,29.3
2023-06-27T11:12:12.047Z,29.1
2023-06-27T11:17:18.367Z,29.1
2023-06-27T11:22:24.342Z,29.4
2023-06-27T11:27:30.268Z,30.2
2023-06-27T11:32:36.359Z,30.3
2023-06-27T11:37:42.452Z,30
2023-06-27T11:42:48.586Z,29.8
2023-06-27T11:47:54.649Z,30.1
2023-06-27T11:53:00.975Z,29.4
2023-06-27T11:58:06.990Z,26.8
2023-06-27T12:03:12.949Z,29.5
2023-06-27T12:08:19.032Z,28.4
2023-06-27T12:18:31.218Z,29.1
2023-06-27T12:23:36.330Z,27
2023-06-27T12:28:42.420Z,25.8
2023-06-27T12:33:48.514Z,26.1
2023-06-27T12:38:54.629Z,25
2023-06-27T12:43:59.734Z,28.4
2023-06-27T12:49:05.843Z,29.9
2023-06-27T12:54:11.930Z,30.1
2023-06-27T12:59:18.011Z,29.3
2023-06-27T13:04:24.106Z,29.2
2023-06-27T13:09:30.195Z,26.8
2023-06-27T13:14:36.295Z,25.3
2023-06-27T13:19:42.399Z,24.7
2023-06-27T13:24:48.500Z,24.6
2023-06-27T13:29:54.593Z,24
2023-06-27T13:35:00.696Z,23.9
2023-06-27T13:40:06.783Z,24.3
2023-06-27T13:45:12.911Z,24.9
2023-06-27T13:50:17.977Z,24.9
2023-06-27T13:55:24.073Z,25.2
2023-06-27T14:00:30.145Z,25.3
2023-06-27T14:05:36.281Z,25.8
2023-06-27T14:10:42.371Z,26.5
2023-06-27T14:15:48.445Z,27
2023-06-27T14:20:54.527Z,26.4
2023-06-27T14:26:00.644Z,25
2023-06-27T14:31:06.723Z,24.1
2023-06-27T14:36:12.808Z,23.1
2023-06-27T14:41:18.905Z,21.7
2023-06-27T14:46:25.000Z,21.5
2023-06-27T14:51:31.116Z,22.6
2023-06-27T14:56:36.224Z,23.6
2023-06-27T15:01:42.312Z,23.5
2023-06-27T15:06:48.400Z,23.5
2023-06-27T15:11:54.513Z,23.7
2023-06-27T15:17:00.596Z,23.9
2023-06-27T15:22:06.679Z,23.6
2023-06-27T15:27:12.781Z,23.9
2023-06-27T15:32:18.870Z,23.8
2023-06-27T15:37:25.050Z,23.5
2023-06-27T15:42:31.070Z,22.9
2023-06-27T15:47:37.152Z,22.4
2023-06-27T15:52:43.244Z,21.9
2023-06-27T15:57:49.378Z,21.3
2023-06-27T16:02:54.451Z,19.1
2023-06-27T16:08:00.536Z,18.5
2023-06-27T16:13:06.636Z,18.4
2023-06-27T16:18:12.733Z,18.9
2023-06-27T16:23:18.839Z,19.2
2023-06-27T16:28:24.950Z,18.9
2023-06-27T16:33:31.034Z,18.7
2023-06-27T16:38:37.107Z,18.5
2023-06-27T16:43:43.213Z,18.1
2023-06-27T16:48:49.523Z,18
2023-06-27T16:53:55.400Z,17.6
2023-06-27T16:59:00.537Z,16.9
2023-06-27T17:04:05.631Z,16.1
2023-06-27T17:09:11.759Z,15.6
2023-06-27T17:14:17.846Z,15.3
2023-06-27T17:19:23.919Z,16
2023-06-27T17:24:30.009Z,17.6
2023-06-27T17:29:36.101Z,17.9
2023-06-27T17:34:42.186Z,17.8
2023-06-27T17:39:48.289Z,17.2
2023-06-27T17:44:54.374Z,16.7
2023-06-27T17:50:00.464Z,16.4
2023-06-27T17:55:06.579Z,16
2023-06-27T18:00:12.662Z,16.1
2023-06-27T18:05:18.757Z,16.1
2023-06-27T18:10:23.849Z,16.1
2023-06-27T18:15:29.968Z,16.1
2023-06-27T18:20:36.056Z,16.1
2023-06-27T18:25:42.141Z,16.1
2023-06-27T18:30:48.264Z,16.1
2023-06-27T18:35:54.345Z,16
2023-06-27T18:41:00.424Z,16
2023-06-27T18:46:06.537Z,16
2023-06-27T18:51:12.618Z,16
2023-06-27T18:56:18.701Z,16
2023-06-27T19:01:24.803Z,15.9
2023-06-27T19:06:30.902Z,15.9
2023-06-27T19:11:37.101Z,15.9
2023-06-27T19:21:48.240Z,15.7
2023-06-27T19:26:54.344Z,15.6
2023-06-27T19:32:00.410Z,15.6
2023-06-27T19:37:06.494Z,15.5
2023-06-27T19:42:12.562Z,15.4
2023-06-27T19:47:18.681Z,15.2
2023-06-27T19:52:24.807Z,15.3
2023-06-27T19:57:30.874Z,15.3
2023-06-27T20:02:36.969Z,15.2
2023-06-27T20:07:43.048Z,15.2
2023-06-27T20:12:49.149Z,15
2023-06-27T20:17:55.291Z,14.9
2023-06-27T20:23:00.357Z,14.9
2023-06-27T20:28:06.459Z,14.8
2023-06-27T20:33:12.538Z,14.8
2023-06-27T20:38:18.621Z,14.6
2023-06-27T20:43:24.737Z,14.6
2023-06-27T20:48:30.830Z,14.6
2023-06-27T20:58:43.017Z,14.5
2023-06-27T21:03:49.110Z,14.5
2023-06-27T21:08:55.208Z,14.5
2023-06-27T21:14:01.319Z,14.4
2023-06-27T21:19:07.381Z,14.3
2023-06-27T21:24:13.483Z,14.1
2023-06-27T21:29:18.585Z,14
2023-06-27T21:34:24.692Z,13.9
2023-06-27T21:39:30.790Z,13.8
2023-06-27T21:44:36.895Z,13.7
2023-06-27T21:49:42.980Z,13.6
2023-06-27T21:54:49.088Z,13.6
2023-06-27T21:59:55.145Z,13.7
2023-06-27T22:05:01.264Z,13.6
2023-06-27T22:10:07.370Z,13.4
2023-06-27T22:15:13.453Z,13.4
2023-06-27T22:20:19.559Z,13.3
2023-06-27T22:25:25.694Z,13.4
2023-06-27T22:30:31.737Z,13.4
2023-06-27T22:35:36.840Z,13.4
2023-06-27T22:40:42.936Z,13.4
2023-06-27T22:45:49.044Z,13.3
2023-06-27T22:50:55.135Z,13.3
2023-06-27T22:56:01.235Z,13.2
2023-06-27T23:01:07.340Z,13.1
2023-06-27T23:06:13.422Z,13.1
2023-06-27T23:11:19.507Z,13
2023-06-27T23:16:25.600Z,13
2023-06-27T23:21:31.693Z,13.1
2023-06-27T23:26:37.801Z,13.1
2023-06-27T23:31:43.894Z,13.1
2023-06-27T23:36:49.993Z,13.1
2023-06-27T23:41:55.085Z,13
2023-06-27T23:47:01.181Z,12.9
2023-06-27T23:52:07.281Z,12.9
2023-06-27T23:57:13.378Z,12.9
